首页
METAR-TAF:

METAR-TAF

机场 :

奥拉迪亚, 罗马尼亚

纬度: 47-03N, 经度: 021-56E, 海拔: 135米

当前天气观测

该预报发布于13分钟前的01:30 UTC
风速6节,风向
温度 8°C
湿度 81%
气压 1019 hPa
能见度10公里或以上

METAR: LROD 200130Z AUTO 09006KT 9999 BKN220/// 08/05 Q1019

时间: 03:43 (01:43 UTC)

预报

该预报发布于8小时和43分钟前的17:00 UTC
预报有效从19日的 18点(UTC)到 20日的 03点(UTC)
风速4节,风向多变
能见度10公里或以上
1500米以下无云,无积雨云
短暂存在
从 20日的 00点(UTC)到 20日的 03点(UTC)
能見度: 3000
轻雾

TAF: LROD 191700Z 1918/2003 VRB04KT CAVOK TEMPO 2000/2003 3000 BR

超过4000个机场的气象观测和天气预报(METAR&TAF报告)。

可查询的气象台以黄色和红色小点在地图上表示。

将鼠标移到小点上方,可查看气象台名称。

然后点击查看天气观测和预报。

如需切换地图:点击带黑十字的绿色按钮放大地图;点击带横线的绿色按钮缩小地图;或者点击绿色箭头查看邻近地区的地图。


METAR-TAF: